Limaburg, Kentucky
Current Conditions -  °F | °C
As of 3:12 AM on Thursday 18 Dec 2014 (Local Time) from KCVG Reporting Station
Overcast Overcast  
Wind Chill: 19°   Ceiling: 1400
Heat Index: 27°   Visibility: 10mi
Dew Point: 18°   Wind: 7mph
Humidity: 69%   Direction: 20°NNE
Pressure: 30.28"   Gusts: NA
Location:  39.0238°N, 84.7647°W
Report Text: KCVG 180812Z 02006KT 10SM OVC014 M03/M08 A3028 RMK AO2
Loading
Personal Weather Stations






























Interactive Weather Map New forecast layout! Learn more

10-Day Weather Forecast

Advertisements
Track Severe Weather on mobile